sensor_id;sensor_type;location;lat;lon;timestamp;pressure;altitude;pressure_sealevel;temperature;humidity
56330;BME280;42236;48.058;10.632;2023-04-05T00:02:04;95061.41;;;-2.16;63.61
56330;BME280;42236;48.058;10.632;2023-04-05T00:04:49;95063.50;;;-2.18;63.52
56330;BME280;42236;48.058;10.632;2023-04-05T00:07:36;95058.69;;;-2.26;63.49
56330;BME280;42236;48.058;10.632;2023-04-05T00:10:22;95043.84;;;-2.32;64.57
56330;BME280;42236;48.058;10.632;2023-04-05T00:13:08;95049.34;;;-2.33;64.81
56330;BME280;42236;48.058;10.632;2023-04-05T00:15:54;95048.31;;;-2.32;64.48
56330;BME280;42236;48.058;10.632;2023-04-05T00:18:43;95052.00;;;-2.33;64.98
56330;BME280;42236;48.058;10.632;2023-04-05T00:21:34;95057.28;;;-2.33;64.75
56330;BME280;42236;48.058;10.632;2023-04-05T00:24:19;95056.44;;;-2.39;65.36
56330;BME280;42236;48.058;10.632;2023-04-05T00:27:06;95050.78;;;-2.48;66.07
56330;BME280;42236;48.058;10.632;2023-04-05T00:29:52;95043.59;;;-2.52;66.25
56330;BME280;42236;48.058;10.632;2023-04-05T00:32:37;95044.13;;;-2.55;65.84
56330;BME280;42236;48.058;10.632;2023-04-05T00:35:26;95036.97;;;-2.55;66.77
56330;BME280;42236;48.058;10.632;2023-04-05T00:38:12;95042.81;;;-2.53;66.29
56330;BME280;42236;48.058;10.632;2023-04-05T00:40:57;95035.69;;;-2.52;66.13
56330;BME280;42236;48.058;10.632;2023-04-05T00:43:43;95034.63;;;-2.51;66.35
56330;BME280;42236;48.058;10.632;2023-04-05T00:46:28;95039.44;;;-2.48;66.34
56330;BME280;42236;48.058;10.632;2023-04-05T00:49:15;95034.16;;;-2.48;66.59
56330;BME280;42236;48.058;10.632;2023-04-05T00:52:01;95033.09;;;-2.47;67.02
56330;BME280;42236;48.058;10.632;2023-04-05T00:54:47;95027.56;;;-2.46;66.85
56330;BME280;42236;48.058;10.632;2023-04-05T00:57:34;95035.00;;;-2.43;67.29
56330;BME280;42236;48.058;10.632;2023-04-05T01:00:23;95027.63;;;-2.41;66.99
56330;BME280;42236;48.058;10.632;2023-04-05T01:03:10;95020.25;;;-2.39;66.93
56330;BME280;42236;48.058;10.632;2023-04-05T01:06:26;95020.06;;;-2.32;68.38
56330;BME280;42236;48.058;10.632;2023-04-05T01:09:32;95022.69;;;-2.32;67.24
56330;BME280;42236;48.058;10.632;2023-04-05T01:12:22;95013.72;;;-2.31;67.48
56330;BME280;42236;48.058;10.632;2023-04-05T01:15:10;95005.53;;;-2.29;66.87
56330;BME280;42236;48.058;10.632;2023-04-05T01:17:56;95009.78;;;-2.28;66.96
56330;BME280;42236;48.058;10.632;2023-04-05T01:20:48;95003.44;;;-2.27;66.99
56330;BME280;42236;48.058;10.632;2023-04-05T01:24:31;95001.84;;;-2.28;67.87
56330;BME280;42236;48.058;10.632;2023-04-05T01:27:13;95003.25;;;-2.48;67.36
56330;BME280;42236;48.058;10.632;2023-04-05T01:30:10;94997.38;;;-2.55;68.77
56330;BME280;42236;48.058;10.632;2023-04-05T01:33:04;95000.75;;;-2.60;68.89
56330;BME280;42236;48.058;10.632;2023-04-05T01:36:10;94995.47;;;-2.60;70.19
56330;BME280;42236;48.058;10.632;2023-04-05T01:39:01;94996.03;;;-2.58;69.61
56330;BME280;42236;48.058;10.632;2023-04-05T01:41:48;94993.16;;;-2.56;68.89
56330;BME280;42236;48.058;10.632;2023-04-05T01:44:34;94989.72;;;-2.51;68.57
56330;BME280;42236;48.058;10.632;2023-04-05T01:47:20;94982.13;;;-2.48;68.60
56330;BME280;42236;48.058;10.632;2023-04-05T01:50:06;94987.69;;;-2.44;68.47
56330;BME280;42236;48.058;10.632;2023-04-05T01:52:52;94986.38;;;-2.42;67.86
56330;BME280;42236;48.058;10.632;2023-04-05T01:55:38;94981.91;;;-2.41;67.82
56330;BME280;42236;48.058;10.632;2023-04-05T01:58:23;94971.09;;;-2.40;67.92
56330;BME280;42236;48.058;10.632;2023-04-05T02:01:09;94970.06;;;-2.39;68.06
56330;BME280;42236;48.058;10.632;2023-04-05T02:03:55;94961.03;;;-2.43;68.98
56330;BME280;42236;48.058;10.632;2023-04-05T02:06:41;94964.47;;;-2.42;68.17
56330;BME280;42236;48.058;10.632;2023-04-05T02:09:26;94957.09;;;-2.40;68.14
56330;BME280;42236;48.058;10.632;2023-04-05T02:12:12;94955.50;;;-2.41;67.98
56330;BME280;42236;48.058;10.632;2023-04-05T02:14:57;94959.19;;;-2.42;68.56
56330;BME280;42236;48.058;10.632;2023-04-05T02:17:43;94952.81;;;-2.46;69.05
56330;BME280;42236;48.058;10.632;2023-04-05T02:20:32;94954.13;;;-2.49;69.09
56330;BME280;42236;48.058;10.632;2023-04-05T02:23:19;94956.75;;;-2.49;68.82
56330;BME280;42236;48.058;10.632;2023-04-05T02:26:04;94949.63;;;-2.48;68.60
56330;BME280;42236;48.058;10.632;2023-04-05T02:28:50;94950.97;;;-2.46;68.71
56330;BME280;42236;48.058;10.632;2023-04-05T02:31:36;94941.72;;;-2.48;68.46
56330;BME280;42236;48.058;10.632;2023-04-05T02:34:22;94944.81;;;-2.51;69.14
56330;BME280;42236;48.058;10.632;2023-04-05T02:37:08;94947.75;;;-2.53;68.90
56330;BME280;42236;48.058;10.632;2023-04-05T02:39:53;94948.25;;;-2.56;68.57
56330;BME280;42236;48.058;10.632;2023-04-05T02:42:40;94943.44;;;-2.59;68.81
56330;BME280;42236;48.058;10.632;2023-04-05T02:45:25;94942.66;;;-2.60;68.68
56330;BME280;42236;48.058;10.632;2023-04-05T02:48:14;94945.28;;;-2.60;69.02
56330;BME280;42236;48.058;10.632;2023-04-05T02:51:00;94937.09;;;-2.63;69.20
56330;BME280;42236;48.058;10.632;2023-04-05T02:53:45;94930.97;;;-2.64;69.24
56330;BME280;42236;48.058;10.632;2023-04-05T02:56:32;94929.16;;;-2.63;69.56
56330;BME280;42236;48.058;10.632;2023-04-05T02:59:18;94926.75;;;-2.65;69.91
56330;BME280;42236;48.058;10.632;2023-04-05T03:02:05;94927.50;;;-2.69;69.50
56330;BME280;42236;48.058;10.632;2023-04-05T03:04:51;94922.72;;;-2.72;70.02
56330;BME280;42236;48.058;10.632;2023-04-05T03:07:37;94922.41;;;-2.76;70.00
56330;BME280;42236;48.058;10.632;2023-04-05T03:10:28;94926.13;;;-2.77;69.84
56330;BME280;42236;48.058;10.632;2023-04-05T03:13:17;94920.53;;;-2.81;70.24
56330;BME280;42236;48.058;10.632;2023-04-05T03:16:03;94930.28;;;-2.81;70.28
56330;BME280;42236;48.058;10.632;2023-04-05T03:18:49;94918.63;;;-2.85;70.94
56330;BME280;42236;48.058;10.632;2023-04-05T03:21:34;94913.56;;;-2.92;71.22
56330;BME280;42236;48.058;10.632;2023-04-05T03:24:20;94914.53;;;-2.98;71.06
56330;BME280;42236;48.058;10.632;2023-04-05T03:27:06;94918.25;;;-2.99;70.67
56330;BME280;42236;48.058;10.632;2023-04-05T03:29:52;94913.72;;;-3.04;70.49
56330;BME280;42236;48.058;10.632;2023-04-05T03:32:37;94914.75;;;-3.05;70.76
56330;BME280;42236;48.058;10.632;2023-04-05T03:35:23;94913.66;;;-3.09;71.58
56330;BME280;42236;48.058;10.632;2023-04-05T03:38:09;94909.97;;;-3.08;71.38
56330;BME280;42236;48.058;10.632;2023-04-05T03:40:54;94908.38;;;-3.09;70.77
56330;BME280;42236;48.058;10.632;2023-04-05T03:43:40;94913.34;;;-3.12;71.41
56330;BME280;42236;48.058;10.632;2023-04-05T03:46:26;94905.69;;;-3.14;71.01
56330;BME280;42236;48.058;10.632;2023-04-05T03:49:11;94909.31;;;-3.20;71.68
56330;BME280;42236;48.058;10.632;2023-04-05T03:51:57;94907.72;;;-3.21;71.30
56330;BME280;42236;48.058;10.632;2023-04-05T03:54:43;94908.75;;;-3.22;71.32
56330;BME280;42236;48.058;10.632;2023-04-05T03:57:28;94902.88;;;-3.29;71.84
56330;BME280;42236;48.058;10.632;2023-04-05T04:00:14;94907.34;;;-3.30;71.55
56330;BME280;42236;48.058;10.632;2023-04-05T04:03:02;94901.84;;;-3.28;71.22
56330;BME280;42236;48.058;10.632;2023-04-05T04:05:48;94904.47;;;-3.28;70.61
56330;BME280;42236;48.058;10.632;2023-04-05T04:08:34;94904.47;;;-3.28;71.10
56330;BME280;42236;48.058;10.632;2023-04-05T04:11:20;94903.19;;;-3.26;70.90
56330;BME280;42236;48.058;10.632;2023-04-05T04:14:06;94910.03;;;-3.25;71.19
56330;BME280;42236;48.058;10.632;2023-04-05T04:16:52;94903.97;;;-3.25;71.09
56330;BME280;42236;48.058;10.632;2023-04-05T04:19:38;94906.28;;;-3.29;71.09
56330;BME280;42236;48.058;10.632;2023-04-05T04:22:24;94910.22;;;-3.31;71.76
56330;BME280;42236;48.058;10.632;2023-04-05T04:25:23;94904.94;;;-3.31;71.72
56330;BME280;42236;48.058;10.632;2023-04-05T04:28:11;94911.84;;;-3.30;71.81
56330;BME280;42236;48.058;10.632;2023-04-05T04:30:57;94911.28;;;-3.32;71.69
56330;BME280;42236;48.058;10.632;2023-04-05T04:33:42;94903.88;;;-3.35;71.61
56330;BME280;42236;48.058;10.632;2023-04-05T04:36:28;94910.16;;;-3.36;71.72
56330;BME280;42236;48.058;10.632;2023-04-05T04:39:19;94902.53;;;-3.38;71.88
56330;BME280;42236;48.058;10.632;2023-04-05T04:42:07;94905.16;;;-3.38;71.81
56330;BME280;42236;48.058;10.632;2023-04-05T04:44:56;94917.00;;;-3.40;72.83
56330;BME280;42236;48.058;10.632;2023-04-05T04:47:43;94905.84;;;-3.48;74.24
56330;BME280;42236;48.058;10.632;2023-04-05T04:50:30;94912.41;;;-3.50;74.02
56330;BME280;42236;48.058;10.632;2023-04-05T04:53:18;94904.78;;;-3.47;73.16
56330;BME280;42236;48.058;10.632;2023-04-05T04:56:06;94900.84;;;-3.44;73.17
56330;BME280;42236;48.058;10.632;2023-04-05T04:58:54;94907.91;;;-3.50;75.65
56330;BME280;42236;48.058;10.632;2023-04-05T05:01:43;94903.44;;;-3.49;74.22
56330;BME280;42236;48.058;10.632;2023-04-05T05:04:29;94913.47;;;-3.46;74.54
56330;BME280;42236;48.058;10.632;2023-04-05T05:07:16;94910.66;;;-3.39;74.05
56330;BME280;42236;48.058;10.632;2023-04-05T05:10:03;94914.81;;;-3.44;75.94
56330;BME280;42236;48.058;10.632;2023-04-05T05:12:49;94902.75;;;-3.39;75.35
56330;BME280;42236;48.058;10.632;2023-04-05T05:15:38;94914.28;;;-3.24;74.00
56330;BME280;42236;48.058;10.632;2023-04-05T05:18:25;94907.88;;;-3.06;73.54
56330;BME280;42236;48.058;10.632;2023-04-05T05:21:11;94904.31;;;-2.94;73.08
56330;BME280;42236;48.058;10.632;2023-04-05T05:23:57;94901.22;;;-2.86;72.57
56330;BME280;42236;48.058;10.632;2023-04-05T05:26:42;94904.16;;;-2.83;72.27
56330;BME280;42236;48.058;10.632;2023-04-05T05:29:28;94920.53;;;-2.81;72.15
56330;BME280;42236;48.058;10.632;2023-04-05T05:32:14;94914.72;;;-2.83;72.07
56330;BME280;42236;48.058;10.632;2023-04-05T05:35:01;94916.53;;;-2.83;72.38
56330;BME280;42236;48.058;10.632;2023-04-05T05:37:47;94922.66;;;-2.83;71.89
56330;BME280;42236;48.058;10.632;2023-04-05T05:40:33;94909.69;;;-2.84;71.58
56330;BME280;42236;48.058;10.632;2023-04-05T05:43:18;94916.53;;;-2.83;72.76
56330;BME280;42236;48.058;10.632;2023-04-05T05:46:05;94917.66;;;-2.79;72.31
56330;BME280;42236;48.058;10.632;2023-04-05T05:48:51;94915.59;;;-2.72;72.26
56330;BME280;42236;48.058;10.632;2023-04-05T05:51:36;94916.44;;;-2.66;72.20
56330;BME280;42236;48.058;10.632;2023-04-05T05:54:22;94920.22;;;-2.57;71.68
56330;BME280;42236;48.058;10.632;2023-04-05T05:57:08;94917.38;;;-2.50;71.66
56330;BME280;42236;48.058;10.632;2023-04-05T05:59:53;94920.84;;;-2.45;71.96
56330;BME280;42236;48.058;10.632;2023-04-05T06:02:39;94925.38;;;-2.40;71.85
56330;BME280;42236;48.058;10.632;2023-04-05T06:05:25;94930.16;;;-2.37;71.59
56330;BME280;42236;48.058;10.632;2023-04-05T06:08:11;94922.03;;;-2.30;71.59
56330;BME280;42236;48.058;10.632;2023-04-05T06:10:56;94926.56;;;-2.26;71.76
56330;BME280;42236;48.058;10.632;2023-04-05T06:13:42;94917.34;;;-2.23;72.50
56330;BME280;42236;48.058;10.632;2023-04-05T06:16:28;94923.97;;;-2.21;72.04
56330;BME280;42236;48.058;10.632;2023-04-05T06:19:15;94920.81;;;-2.18;72.64
56330;BME280;42236;48.058;10.632;2023-04-05T06:22:00;94923.44;;;-2.18;72.58
56330;BME280;42236;48.058;10.632;2023-04-05T06:24:46;94925.63;;;-2.09;72.25
56330;BME280;42236;48.058;10.632;2023-04-05T06:27:32;94922.25;;;-2.05;72.29
56330;BME280;42236;48.058;10.632;2023-04-05T06:30:17;94925.72;;;-1.94;71.69
56330;BME280;42236;48.058;10.632;2023-04-05T06:33:03;94917.84;;;-1.84;71.35
56330;BME280;42236;48.058;10.632;2023-04-05T06:35:49;94926.09;;;-1.80;71.13
56330;BME280;42236;48.058;10.632;2023-04-05T06:38:34;94924.00;;;-1.78;71.86
56330;BME280;42236;48.058;10.632;2023-04-05T06:41:21;94925.84;;;-1.79;72.06
56330;BME280;42236;48.058;10.632;2023-04-05T06:44:07;94928.53;;;-1.74;71.98
56330;BME280;42236;48.058;10.632;2023-04-05T06:46:52;94931.19;;;-1.68;71.11
56330;BME280;42236;48.058;10.632;2023-04-05T06:49:38;94931.75;;;-1.61;71.01
56330;BME280;42236;48.058;10.632;2023-04-05T06:52:23;94927.06;;;-1.49;71.36
56330;BME280;42236;48.058;10.632;2023-04-05T06:55:09;94924.41;;;-1.49;72.16
56330;BME280;42236;48.058;10.632;2023-04-05T06:57:55;94919.94;;;-1.43;71.38
56330;BME280;42236;48.058;10.632;2023-04-05T07:00:41;94923.19;;;-1.26;71.51
56330;BME280;42236;48.058;10.632;2023-04-05T07:03:27;94923.50;;;-1.12;71.20
56330;BME280;42236;48.058;10.632;2023-04-05T07:06:12;94927.56;;;-0.94;71.01
56330;BME280;42236;48.058;10.632;2023-04-05T07:08:58;94929.94;;;-0.82;70.65
56330;BME280;42236;48.058;10.632;2023-04-05T07:11:44;94935.53;;;-0.74;70.51
56330;BME280;42236;48.058;10.632;2023-04-05T07:14:30;94932.66;;;-0.67;70.39
56330;BME280;42236;48.058;10.632;2023-04-05T07:17:17;94935.84;;;-0.65;70.66
56330;BME280;42236;48.058;10.632;2023-04-05T07:20:02;94935.31;;;-0.57;70.06
56330;BME280;42236;48.058;10.632;2023-04-05T07:22:51;94928.94;;;-0.56;70.09
56330;BME280;42236;48.058;10.632;2023-04-05T07:25:39;94928.44;;;-0.48;70.08
56330;BME280;42236;48.058;10.632;2023-04-05T07:28:24;94925.78;;;-0.37;69.90
56330;BME280;42236;48.058;10.632;2023-04-05T07:31:10;94937.47;;;-0.23;69.50
56330;BME280;42236;48.058;10.632;2023-04-05T07:33:59;94939.06;;;-0.17;69.13
56330;BME280;42236;48.058;10.632;2023-04-05T07:36:45;94925.28;;;-0.09;68.88
56330;BME280;42236;48.058;10.632;2023-04-05T07:39:32;94933.19;;;0.07;68.75
56330;BME280;42236;48.058;10.632;2023-04-05T07:42:17;94928.44;;;0.14;68.45
56330;BME280;42236;48.058;10.632;2023-04-05T07:45:06;94931.88;;;0.19;67.86
56330;BME280;42236;48.058;10.632;2023-04-05T07:47:51;94936.38;;;0.29;67.47
56330;BME280;42236;48.058;10.632;2023-04-05T07:50:37;94940.34;;;0.32;67.92
56330;BME280;42236;48.058;10.632;2023-04-05T07:53:25;94940.59;;;0.35;67.35
56330;BME280;42236;48.058;10.632;2023-04-05T07:56:11;94937.13;;;0.45;67.48
56330;BME280;42236;48.058;10.632;2023-04-05T07:58:58;94945.09;;;0.50;66.83
56330;BME280;42236;48.058;10.632;2023-04-05T08:01:44;94940.28;;;0.62;66.71
56330;BME280;42236;48.058;10.632;2023-04-05T08:04:30;94946.38;;;0.73;66.88
56330;BME280;42236;48.058;10.632;2023-04-05T08:07:16;94940.50;;;0.76;66.76
56330;BME280;42236;48.058;10.632;2023-04-05T08:10:02;94944.69;;;0.93;65.72
56330;BME280;42236;48.058;10.632;2023-04-05T08:12:49;94939.59;;;1.01;65.07
56330;BME280;42236;48.058;10.632;2023-04-05T08:15:34;94940.44;;;0.97;64.75
56330;BME280;42236;48.058;10.632;2023-04-05T08:18:20;94944.66;;;1.03;65.50
56330;BME280;42236;48.058;10.632;2023-04-05T08:21:06;94943.53;;;1.19;64.89
56330;BME280;42236;48.058;10.632;2023-04-05T08:23:51;94944.50;;;1.34;65.01
56330;BME280;42236;48.058;10.632;2023-04-05T08:26:37;94943.09;;;1.46;63.38
56330;BME280;42236;48.058;10.632;2023-04-05T08:29:23;94933.22;;;1.52;63.11
56330;BME280;42236;48.058;10.632;2023-04-05T08:32:08;94942.00;;;1.53;63.32
56330;BME280;42236;48.058;10.632;2023-04-05T08:34:54;94940.34;;;1.62;62.09
56330;BME280;42236;48.058;10.632;2023-04-05T08:37:40;94946.44;;;1.67;62.30
56330;BME280;42236;48.058;10.632;2023-04-05T08:40:38;94949.59;;;1.75;61.24
56330;BME280;42236;48.058;10.632;2023-04-05T08:43:27;94937.84;;;1.76;61.45
56330;BME280;42236;48.058;10.632;2023-04-05T08:46:19;94937.81;;;1.81;60.22
56330;BME280;42236;48.058;10.632;2023-04-05T08:49:07;94941.44;;;1.95;59.19
56330;BME280;42236;48.058;10.632;2023-04-05T08:51:53;94941.34;;;2.10;60.61
56330;BME280;42236;48.058;10.632;2023-04-05T08:54:39;94937.50;;;2.22;59.88
56330;BME280;42236;48.058;10.632;2023-04-05T08:57:27;94934.72;;;2.37;58.42
56330;BME280;42236;48.058;10.632;2023-04-05T09:00:14;94945.22;;;2.52;58.63
56330;BME280;42236;48.058;10.632;2023-04-05T09:03:01;94939.38;;;2.50;55.75
56330;BME280;42236;48.058;10.632;2023-04-05T09:05:52;94946.25;;;2.56;53.42
56330;BME280;42236;48.058;10.632;2023-04-05T09:08:38;94943.59;;;2.81;55.38
56330;BME280;42236;48.058;10.632;2023-04-05T09:11:24;94941.91;;;3.09;54.57
56330;BME280;42236;48.058;10.632;2023-04-05T09:14:10;94943.69;;;3.37;55.60
56330;BME280;42236;48.058;10.632;2023-04-05T09:16:57;94941.75;;;3.62;55.97
56330;BME280;42236;48.058;10.632;2023-04-05T09:19:45;94933.59;;;3.91;55.33
56330;BME280;42236;48.058;10.632;2023-04-05T09:22:44;94927.72;;;4.08;51.51
56330;BME280;42236;48.058;10.632;2023-04-05T09:28:16;94936.97;;;4.16;51.01
56330;BME280;42236;48.058;10.632;2023-04-05T09:31:01;94934.06;;;4.12;51.61
56330;BME280;42236;48.058;10.632;2023-04-05T09:33:47;94941.47;;;4.01;50.46
56330;BME280;42236;48.058;10.632;2023-04-05T09:36:33;94941.31;;;3.93;50.17
56330;BME280;42236;48.058;10.632;2023-04-05T09:39:27;94938.81;;;3.82;48.36
56330;BME280;42236;48.058;10.632;2023-04-05T09:42:14;94941.31;;;3.93;48.39
56330;BME280;42236;48.058;10.632;2023-04-05T09:45:00;94936.31;;;4.05;50.90
56330;BME280;42236;48.058;10.632;2023-04-05T09:47:53;94934.94;;;4.07;50.50
56330;BME280;42236;48.058;10.632;2023-04-05T09:50:40;94942.69;;;3.90;50.42
56330;BME280;42236;48.058;10.632;2023-04-05T09:53:26;94944.22;;;3.77;49.30
56330;BME280;42236;48.058;10.632;2023-04-05T09:56:13;94935.56;;;3.85;50.84
56330;BME280;42236;48.058;10.632;2023-04-05T09:59:07;94940.88;;;3.85;46.22
56330;BME280;42236;48.058;10.632;2023-04-05T10:01:53;94946.91;;;4.10;48.11
56330;BME280;42236;48.058;10.632;2023-04-05T10:04:45;94942.63;;;4.28;46.02
56330;BME280;42236;48.058;10.632;2023-04-05T10:07:31;94939.50;;;4.40;49.52
56330;BME280;42236;48.058;10.632;2023-04-05T10:10:17;94935.44;;;4.42;47.16
56330;BME280;42236;48.058;10.632;2023-04-05T10:13:04;94938.53;;;4.49;48.31
56330;BME280;42236;48.058;10.632;2023-04-05T10:15:53;94934.47;;;4.66;47.71
56330;BME280;42236;48.058;10.632;2023-04-05T10:18:46;94930.13;;;4.70;47.02
56330;BME280;42236;48.058;10.632;2023-04-05T10:21:35;94940.34;;;4.82;47.92
56330;BME280;42236;48.058;10.632;2023-04-05T10:24:49;94927.47;;;4.84;45.65
56330;BME280;42236;48.058;10.632;2023-04-05T10:27:46;94927.88;;;4.77;46.80
56330;BME280;42236;48.058;10.632;2023-04-05T10:30:36;94932.41;;;4.63;47.37
56330;BME280;42236;48.058;10.632;2023-04-05T10:33:29;94930.41;;;4.41;47.75
56330;BME280;42236;48.058;10.632;2023-04-05T10:42:20;94929.50;;;4.13;45.35
56330;BME280;42236;48.058;10.632;2023-04-05T10:45:06;94933.47;;;4.15;45.49
56330;BME280;42236;48.058;10.632;2023-04-05T10:48:06;94931.34;;;4.31;46.26
56330;BME280;42236;48.058;10.632;2023-04-05T10:50:56;94931.41;;;4.45;47.46
56330;BME280;42236;48.058;10.632;2023-04-05T10:53:44;94924.06;;;4.51;48.14
56330;BME280;42236;48.058;10.632;2023-04-05T10:56:30;94919.84;;;4.49;47.56
56330;BME280;42236;48.058;10.632;2023-04-05T10:59:16;94917.16;;;4.63;48.16
56330;BME280;42236;48.058;10.632;2023-04-05T11:02:03;94917.66;;;4.65;48.18
56330;BME280;42236;48.058;10.632;2023-04-05T11:04:55;94925.75;;;4.33;44.58
56330;BME280;42236;48.058;10.632;2023-04-05T11:07:42;94917.03;;;4.41;48.24
56330;BME280;42236;48.058;10.632;2023-04-05T11:10:29;94916.84;;;4.51;47.48
56330;BME280;42236;48.058;10.632;2023-04-05T11:13:15;94913.50;;;4.59;46.79
56330;BME280;42236;48.058;10.632;2023-04-05T11:16:07;94917.34;;;4.53;45.56
56330;BME280;42236;48.058;10.632;2023-04-05T11:18:53;94918.75;;;4.64;47.81
56330;BME280;42236;48.058;10.632;2023-04-05T11:21:39;94914.78;;;4.76;47.85
56330;BME280;42236;48.058;10.632;2023-04-05T11:27:37;94909.66;;;4.93;48.11
56330;BME280;42236;48.058;10.632;2023-04-05T11:30:51;94909.28;;;4.86;44.89
56330;BME280;42236;48.058;10.632;2023-04-05T11:34:04;94905.72;;;4.90;45.12
56330;BME280;42236;48.058;10.632;2023-04-05T11:36:56;94904.41;;;4.88;47.46
56330;BME280;42236;48.058;10.632;2023-04-05T11:39:42;94908.66;;;4.89;47.75
56330;BME280;42236;48.058;10.632;2023-04-05T11:42:27;94905.09;;;4.80;47.22
56330;BME280;42236;48.058;10.632;2023-04-05T11:45:13;94898.56;;;4.72;45.39
56330;BME280;42236;48.058;10.632;2023-04-05T11:48:09;94905.31;;;4.69;43.04
56330;BME280;42236;48.058;10.632;2023-04-05T11:50:56;94905.31;;;4.69;45.71
56330;BME280;42236;48.058;10.632;2023-04-05T11:53:47;94898.16;;;4.65;45.30
56330;BME280;42236;48.058;10.632;2023-04-05T11:56:33;94886.22;;;4.76;46.66
56330;BME280;42236;48.058;10.632;2023-04-05T11:59:19;94889.66;;;4.90;47.20
56330;BME280;42236;48.058;10.632;2023-04-05T12:02:05;94889.16;;;5.02;46.33
56330;BME280;42236;48.058;10.632;2023-04-05T12:04:56;94886.84;;;5.09;46.36
56330;BME280;42236;48.058;10.632;2023-04-05T12:07:42;94883.88;;;5.25;47.23
56330;BME280;42236;48.058;10.632;2023-04-05T12:10:27;94893.97;;;5.28;46.28
56330;BME280;42236;48.058;10.632;2023-04-05T12:13:13;94890.41;;;5.32;46.46
56330;BME280;42236;48.058;10.632;2023-04-05T12:16:00;94894.25;;;5.40;46.36
56330;BME280;42236;48.058;10.632;2023-04-05T12:18:58;94883.66;;;5.35;43.92
56330;BME280;42236;48.058;10.632;2023-04-05T12:21:45;94885.22;;;5.36;46.03
56330;BME280;42236;48.058;10.632;2023-04-05T12:24:31;94884.66;;;5.39;46.25
56330;BME280;42236;48.058;10.632;2023-04-05T12:27:16;94878.44;;;5.30;43.71
56330;BME280;42236;48.058;10.632;2023-04-05T12:30:16;94870.31;;;5.21;43.29
56330;BME280;42236;48.058;10.632;2023-04-05T12:33:06;94872.47;;;5.33;45.62
56330;BME280;42236;48.058;10.632;2023-04-05T12:35:54;94871.16;;;5.44;46.08
56330;BME280;42236;48.058;10.632;2023-04-05T12:38:39;94867.13;;;5.55;45.72
56330;BME280;42236;48.058;10.632;2023-04-05T12:41:26;94876.09;;;5.51;45.56
56330;BME280;42236;48.058;10.632;2023-04-05T12:44:27;94872.59;;;5.50;43.24
56330;BME280;42236;48.058;10.632;2023-04-05T12:47:13;94876.91;;;5.38;45.74
56330;BME280;42236;48.058;10.632;2023-04-05T12:50:12;94875.53;;;5.40;44.43
56330;BME280;42236;48.058;10.632;2023-04-05T12:52:59;94865.69;;;5.49;45.82
56330;BME280;42236;48.058;10.632;2023-04-05T12:58:36;94854.88;;;5.77;46.26
56330;BME280;42236;48.058;10.632;2023-04-05T13:01:22;94860.72;;;5.79;43.75
56330;BME280;42236;48.058;10.632;2023-04-05T13:04:07;94859.16;;;5.78;45.36
56330;BME280;42236;48.058;10.632;2023-04-05T13:06:53;94859.16;;;5.78;45.25
56330;BME280;42236;48.058;10.632;2023-04-05T13:09:39;94860.84;;;5.74;45.31
56330;BME280;42236;48.058;10.632;2023-04-05T13:12:24;94858.47;;;5.72;44.98
56330;BME280;42236;48.058;10.632;2023-04-05T13:15:10;94845.41;;;5.71;44.20
56330;BME280;42236;48.058;10.632;2023-04-05T13:17:56;94848.91;;;5.57;44.16
56330;BME280;42236;48.058;10.632;2023-04-05T13:20:42;94841.84;;;5.62;44.71
56330;BME280;42236;48.058;10.632;2023-04-05T13:23:27;94843.56;;;5.57;44.43
56330;BME280;42236;48.058;10.632;2023-04-05T13:26:13;94838.16;;;5.71;44.47
56330;BME280;42236;48.058;10.632;2023-04-05T13:28:59;94839.53;;;5.91;44.65
56330;BME280;42236;48.058;10.632;2023-04-05T13:31:44;94833.00;;;5.97;44.14
56330;BME280;42236;48.058;10.632;2023-04-05T13:34:30;94835.19;;;5.95;44.58
56330;BME280;42236;48.058;10.632;2023-04-05T13:37:16;94833.94;;;6.02;44.48
56330;BME280;42236;48.058;10.632;2023-04-05T13:40:01;94825.31;;;6.05;44.39
56330;BME280;42236;48.058;10.632;2023-04-05T13:42:47;94828.13;;;6.00;44.48
56330;BME280;42236;48.058;10.632;2023-04-05T13:45:33;94817.44;;;6.08;42.99
56330;BME280;42236;48.058;10.632;2023-04-05T13:48:19;94824.13;;;6.19;43.89
56330;BME280;42236;48.058;10.632;2023-04-05T13:51:05;94822.72;;;6.22;43.56
56330;BME280;42236;48.058;10.632;2023-04-05T13:53:50;94823.34;;;6.19;43.77
56330;BME280;42236;48.058;10.632;2023-04-05T13:56:37;94803.69;;;6.24;43.58
56330;BME280;42236;48.058;10.632;2023-04-05T13:59:22;94811.59;;;6.29;43.99
56330;BME280;42236;48.058;10.632;2023-04-05T14:02:08;94807.50;;;6.31;44.04
56330;BME280;42236;48.058;10.632;2023-04-05T14:04:56;94814.41;;;6.32;43.93
56330;BME280;42236;48.058;10.632;2023-04-05T14:07:41;94817.25;;;6.27;43.19
56330;BME280;42236;48.058;10.632;2023-04-05T14:10:27;94804.84;;;6.09;43.87
56330;BME280;42236;48.058;10.632;2023-04-05T14:13:13;94800.59;;;6.08;44.20
56330;BME280;42236;48.058;10.632;2023-04-05T14:16:00;94804.06;;;6.08;44.21
56330;BME280;42236;48.058;10.632;2023-04-05T14:18:46;94799.84;;;6.16;44.04
56330;BME280;42236;48.058;10.632;2023-04-05T14:21:31;94803.78;;;6.18;42.83
56330;BME280;42236;48.058;10.632;2023-04-05T14:24:17;94795.47;;;6.20;43.10
56330;BME280;42236;48.058;10.632;2023-04-05T14:27:03;94803.19;;;6.22;43.85
56330;BME280;42236;48.058;10.632;2023-04-05T14:29:49;94803.63;;;6.15;43.77
56330;BME280;42236;48.058;10.632;2023-04-05T14:32:37;94796.09;;;6.17;43.90
56330;BME280;42236;48.058;10.632;2023-04-05T14:35:23;94802.09;;;6.23;43.70
56330;BME280;42236;48.058;10.632;2023-04-05T14:38:08;94802.13;;;6.31;43.54
56330;BME280;42236;48.058;10.632;2023-04-05T14:40:54;94794.94;;;6.40;43.16
56330;BME280;42236;48.058;10.632;2023-04-05T14:43:40;94790.00;;;6.34;41.12
56330;BME280;42236;48.058;10.632;2023-04-05T14:46:26;94793.78;;;6.33;43.32
56330;BME280;42236;48.058;10.632;2023-04-05T14:49:12;94791.44;;;6.40;43.04
56330;BME280;42236;48.058;10.632;2023-04-05T14:51:57;94796.63;;;6.36;42.24
56330;BME280;42236;48.058;10.632;2023-04-05T14:54:43;94788.31;;;6.38;41.34
56330;BME280;42236;48.058;10.632;2023-04-05T14:57:29;94783.88;;;6.33;42.66